Nearby METAR Reports

 

KSJC - San Jose, California, USA
Distance from station: NE 9mi, 14km
Updated: Wed, 26-Jun-2019 4:53pm PDT
Partly cloudy
Partly cloudy
 Wind from NNW
Wind: NNW 16 mph , 26 km/h, Gust: 25 mph , 41 km/h
Temperature: 70°F , 21°C
Dew Point: 55°F , 13°C
Humidity: 60%
Barometer: 30.01 inHg , 1016.3 hPa
Clouds: Partly cloudy
Visibility: 10 miles , 16 km
Cloud details: Few Clouds 1800 ft
Few Clouds 3500 ft
Partly cloudy 8000 ft
2019/06/26 23:53 KSJC 262353Z 33014G22KT 10SM FEW018 FEW035 SCT080 21/13 A3001 RMK AO2 SLP160 T02110128 10228 20194 50001
KNUQ - Moffett Nas/Mtn, California, USA
Distance from station: N 9mi, 14km
Updated: Wed, 26-Jun-2019 4:56pm PDT
Clear
Clear
 Wind from NW
Wind: NW 13 mph , 20 km/h, Gust: 23 mph , 37 km/h
Barometer: 30.02 inHg , 1016.6 hPa
Clouds: Clear
Visibility: 10 miles , 16 km
2019/06/26 23:56 KNUQ 262356Z 32011G20KT 10SM CLR A3002 RMK AO2 SLP170 53003
 
KPAO - Palo Alto, California, USA
Distance from station: NNW 14mi, 23km
Updated: Wed, 26-Jun-2019 2:47pm PDT
NOT Current
Partly cloudy
Partly cloudy
 Wind from NW
Wind: NW 17 mph , 28 km/h
Temperature: 72°F , 22°C
Dew Point: 52°F , 11°C
Humidity: 50%
Barometer: 30.02 inHg , 1016.6 hPa
Clouds: Partly cloudy
Visibility: 10 miles , 16 km
Cloud details: Partly cloudy 3000 ft
2019/06/26 21:47 KPAO 262147Z 32015KT 10SM SCT030 22/11 A3002
KRHV - San Jose/Reid, California, USA
Distance from station: ENE 12mi, 19km
Updated: Wed, 26-Jun-2019 4:48pm PDT
Clear
Clear
 Wind from NW
Wind: NW 17 mph , 28 km/h, Gust: 23 mph , 37 km/h
Temperature: 72°F , 22°C
Dew Point: 52°F , 11°C
Humidity: 50%
Barometer: 30.00 inHg , 1015.9 hPa
Clouds: Clear
Visibility: 10 miles , 16 km
2019/06/26 23:48 KRHV 262348Z 32015G20KT 10SM SKC 22/11 A3000
 
KOAK - Oakland, California, USA
Distance from station: NNW 31mi, 50km
Updated: Wed, 26-Jun-2019 4:53pm PDT
Partly cloudy
Partly cloudy
 Wind from W
Wind: W 20 mph , 31 km/h
Temperature: 68°F , 20°C
Dew Point: 52°F , 11°C
Humidity: 56%
Barometer: 30.02 inHg , 1016.6 hPa
Clouds: Partly cloudy
Visibility: 10 miles , 16 km
Cloud details: Partly cloudy 2500 ft
2019/06/26 23:53 KOAK 262353Z 26017KT 10SM SCT025 20/11 A3002 RMK AO2 SLP166 T02000111 10211 20178 58003
KSQL - San Carlos Airpo, California, USA
Distance from station: NW 21mi, 34km
Updated: Wed, 26-Jun-2019 4:56pm PDT
Few Clouds
Few Clouds
 Wind from WSW
Wind: WSW 9 mph , 15 km/h, Gust: 17 mph , 28 km/h
Temperature: 66°F , 19°C
Dew Point: 52°F , 11°C
Humidity: 60%
Barometer: 30.04 inHg , 1017.3 hPa
Clouds: Few Clouds
Visibility: 10 miles , 16 km
Cloud details: Few Clouds 2500 ft
2019/06/26 23:56 KSQL 262356Z 25008G15KT 10SM FEW025 19/11 A3004
 
KSFO - San Francisco, California, USA
Distance from station: NW 30mi, 49km
Updated: Wed, 26-Jun-2019 4:56pm PDT
Partly cloudy
Partly cloudy
 Wind from W
Wind: W 17 mph , 28 km/h, Gust: 23 mph , 37 km/h
Temperature: 66°F , 19°C
Dew Point: 52°F , 11°C
Humidity: 60%
Barometer: 30.04 inHg , 1017.3 hPa
Clouds: Partly cloudy
Visibility: 10 miles , 16 km
Cloud details: Few Clouds 1000 ft
Partly cloudy 2300 ft
Partly cloudy 20000 ft
2019/06/26 23:56 KSFO 262356Z 27015G20KT 10SM FEW010 SCT023 SCT200 19/11 A3004 RMK AO2 SLP171 T01890106 10211 20161 50001
KE16 - San Martin, California, USA
Distance from station: ESE 27mi, 43km
Updated: Wed, 26-Jun-2019 5:15pm PDT
Clear
Clear
 Wind from NNW
Wind: NNW 15 mph , 24 km/h, Gust: 24 mph , 39 km/h
Temperature: 73°F , 23°C
Dew Point: 54°F , 12°C
Humidity: 50%
Barometer: 29.99 inHg , 1015.6 hPa
Clouds: Clear
Visibility: 10 miles , 16 km
2019/06/27 00:15 KE16 270015Z AUTO 33013G21KT 10SM CLR 23/12 A2999 RMK AO2 PWINO PNO
 
KWVI - Watsonville, California, USA
Distance from station: SSE 27mi, 44km
Updated: Wed, 26-Jun-2019 4:53pm PDT
Clear
Clear
 Wind from S
Wind: S 12 mph , 19 km/h
Temperature: 66°F , 19°C
Dew Point: 55°F , 13°C
Humidity: 68%
Barometer: 30.02 inHg , 1016.6 hPa
Clouds: Clear
Visibility: 10 miles , 16 km
2019/06/26 23:53 KWVI 262353Z AUTO 19010KT 10SM CLR 19/13 A3002 RMK AO2 SLP164 T01940128 10228 20194 58001
KHAF - Half Moon Bay, California, USA
Distance from station: WNW 31mi, 50km
Updated: Wed, 26-Jun-2019 5:35pm PDT
Few Clouds
Few Clouds
 Wind from NW
Wind: NW 9 mph , 15 km/h
Temperature: 61°F , 16°C
Dew Point: 55°F , 13°C
Humidity: 83%
Barometer: 30.06 inHg , 1017.9 hPa
Clouds: Few Clouds
Visibility: 10 miles , 16 km
Cloud details: Few Clouds 900 ft
2019/06/27 00:35 KHAF 270035Z AUTO 31008KT 10SM FEW009 16/13 A3006 RMK AO2
 
KHWD - Hayward, California, USA
Distance from station: N 28mi, 44km
Updated: Wed, 26-Jun-2019 4:54pm PDT
Few Clouds
Few Clouds
 Wind from W
Wind: W 16 mph , 26 km/h
Temperature: 66°F , 19°C
Dew Point: 52°F , 11°C
Humidity: 60%
Barometer: 30.03 inHg , 1016.9 hPa
Clouds: Few Clouds
Visibility: 10 miles , 16 km
Cloud details: Few Clouds 2000 ft
2019/06/26 23:54 KHWD 262354Z 26014KT 10SM FEW020 19/11 A3003 RMK AO2 SLP177 T01890111 10200 20172 58003
KLVK - Livermore, California, USA
Distance from station: NNE 31mi, 51km
Updated: Wed, 26-Jun-2019 4:53pm PDT
Clear
Clear
 Wind from WNW
Wind: WNW 17 mph , 28 km/h
Temperature: 70°F , 21°C
Dew Point: 48°F , 9°C
Humidity: 46%
Barometer: 30.00 inHg , 1015.9 hPa
Clouds: Clear
Visibility: 10 miles , 16 km
2019/06/26 23:53 KLVK 262353Z 29015KT 10SM CLR 21/09 A3000 RMK AO2 SLP155 T02060094 10222 20194 55001